Saint Francisville, Missouri
Current Conditions -  °F | °C
As of 8:35 AM on Thursday 29 Jan 2015 (Local Time) from KEOK Reporting Station
Overcast Overcast  
Wind Chill: 28°   Ceiling: 1800
Heat Index: 37°   Visibility: 10mi
Dew Point: 32°   Wind: 17mph
Humidity: 81%   Direction: 310°NW
Pressure: 30.06"   Gusts: 28mph
Location:  40.3208°N, 91.5406°W
Report Text: KEOK 291435Z AUTO 31015G24KT 10SM OVC018 03/M00 A3006 RMK AO2
Loading
Personal Weather Stations






























Interactive Weather Map New forecast layout! Learn more

10-Day Weather Forecast

Advertisements
Track Severe Weather on mobile